Search for airport 
image banner adimage banner adimage banner ad
image banner ad

FMMI - Antananarivo/Ivato

Located in Antananarivo, Madagascar

ICAO - FMMI, IATA - TNR

Data provided by Airmate  

General information

Coordinates: S18°47'47" E47°28'34"
Elevation is 4198 feet MSL.
 
View others Airports in Antananarivo

Operational data

Special qualification required
Current time UTC:
Current local time:
Weather
METAR: FMMI 191230Z 14007KT 090V190 9999 FEW023 29/06 Q1019 NOSIG
TAF: TAF FMMI 191100Z 1912/2018 08013KT 9999 FEW020 BECMG 1917/1920 VRB03KT BECMG 2010/2013 08013KT
View NOTAMs / SUP AIP / TFR affecting this airport [VIEW]
Communications frequencies: [VIEW]

Runways:

RWY identifierQFULength (ft)Width (ft)SurfaceLDA (ft)
1199°10171148ASP
29279°10171148

Airport contact information

Address: Antananarivo Madagascar

Satellite view of FMMI